SCW712 ESGG-LFKB
Flight info
| Callsign | SCW712 |
|---|---|
| Flight time | N/A |
| Altitude | 28000 |
| Route | VADIN DCT ALASA DCT WRB DCT XAROL DCT SWALM DCT OMOGI DCT TITIX N850 ODINA DCT OLETI M858 LIGUR |
| Aircraft | RJ1H/M-SDFGIRWY/LB1 |
Departure
| Time | N/A |
|---|---|
| Airport | Göteborg Landvetter Airport (ESGG) |
Arrival
| Time | 2026-05-04 16:12 |
|---|---|
| Airport | Bastia-Poretta International airport (LFKB) |
| Time | Latitude | Longitude | Altitude | Speed | Heading |
|---|---|---|---|---|---|
| 2026-05-04 15:06 | 48.59595 | 8.63534 | 29962 ft | 376 kts | 193° |
| 2026-05-04 15:07 | 48.51985 | 8.61047 | 29961 ft | 375 kts | 193° |
| 2026-05-04 15:07 | 48.46883 | 8.59381 | 29959 ft | 376 kts | 193° |
| 2026-05-04 15:08 | 48.41773 | 8.57723 | 29965 ft | 376 kts | 194° |
| 2026-05-04 15:08 | 48.36694 | 8.56071 | 29965 ft | 376 kts | 193° |
| 2026-05-04 15:09 | 48.31579 | 8.54412 | 29958 ft | 376 kts | 194° |
| 2026-05-04 15:09 | 48.26458 | 8.52758 | 29962 ft | 377 kts | 194° |
| 2026-05-04 15:10 | 48.18750 | 8.50271 | 29969 ft | 378 kts | 193° |
| 2026-05-04 15:11 | 48.11018 | 8.47788 | 29975 ft | 377 kts | 193° |
| 2026-05-04 15:11 | 48.05895 | 8.46141 | 29975 ft | 376 kts | 193° |
| 2026-05-04 15:12 | 48.00780 | 8.44502 | 29981 ft | 376 kts | 193° |
| 2026-05-04 15:12 | 47.95659 | 8.42872 | 29975 ft | 376 kts | 193° |
| 2026-05-04 15:13 | 47.90582 | 8.41254 | 29977 ft | 376 kts | 193° |
| 2026-05-04 15:13 | 47.85387 | 8.40189 | 29981 ft | 376 kts | 182° |
| 2026-05-04 15:14 | 47.80162 | 8.40879 | 29983 ft | 378 kts | 175° |
| 2026-05-04 15:14 | 47.74962 | 8.42179 | 29986 ft | 380 kts | 173° |
| 2026-05-04 15:15 | 47.69741 | 8.43527 | 29956 ft | 380 kts | 174° |
| 2026-05-04 15:15 | 47.64541 | 8.44503 | 29967 ft | 381 kts | 177° |
| 2026-05-04 15:16 | 47.56612 | 8.45585 | 29966 ft | 381 kts | 177° |
| 2026-05-04 15:17 | 47.48696 | 8.46699 | 29956 ft | 381 kts | 177° |
| 2026-05-04 15:17 | 47.40811 | 8.47889 | 29989 ft | 383 kts | 176° |
| 2026-05-04 15:18 | 47.35521 | 8.48652 | 29966 ft | 382 kts | 176° |
| 2026-05-04 15:19 | 47.27594 | 8.49804 | 29971 ft | 382 kts | 176° |
| 2026-05-04 15:19 | 47.19660 | 8.51004 | 29970 ft | 382 kts | 176° |
| 2026-05-04 15:20 | 47.14371 | 8.51760 | 29972 ft | 381 kts | 176° |
| 2026-05-04 15:20 | 47.09088 | 8.52546 | 29984 ft | 382 kts | 176° |
| 2026-05-04 15:21 | 47.03791 | 8.53291 | 29955 ft | 382 kts | 176° |
| 2026-05-04 15:22 | 46.95911 | 8.54404 | 30000 ft | 382 kts | 176° |
| 2026-05-04 15:22 | 46.87957 | 8.55539 | 29976 ft | 382 kts | 176° |
| 2026-05-04 15:23 | 46.82671 | 8.56283 | 29974 ft | 381 kts | 176° |
| 2026-05-04 15:23 | 46.77384 | 8.57041 | 30006 ft | 383 kts | 176° |
| 2026-05-04 15:24 | 46.66692 | 8.58569 | 30053 ft | 387 kts | 176° |
| 2026-05-04 15:25 | 46.61334 | 8.59328 | 30061 ft | 386 kts | 176° |
| 2026-05-04 15:26 | 46.53357 | 8.60468 | 30076 ft | 386 kts | 176° |
| 2026-05-04 15:26 | 46.45337 | 8.61618 | 30075 ft | 386 kts | 176° |
| 2026-05-04 15:27 | 46.37317 | 8.62762 | 30113 ft | 386 kts | 176° |
| 2026-05-04 15:28 | 46.29262 | 8.63918 | 30095 ft | 386 kts | 176° |
| 2026-05-04 15:29 | 46.21299 | 8.65061 | 30073 ft | 384 kts | 176° |
| 2026-05-04 15:30 | 46.02602 | 8.67746 | 30054 ft | 386 kts | 176° |
| 2026-05-04 15:31 | 45.94576 | 8.69013 | 30080 ft | 387 kts | 176° |
| 2026-05-04 15:32 | 45.81172 | 8.71070 | 30083 ft | 391 kts | 176° |
| 2026-05-04 15:34 | 45.67556 | 8.73155 | 30080 ft | 393 kts | 176° |
| 2026-05-04 15:34 | 45.59405 | 8.74431 | 30084 ft | 394 kts | 176° |
| 2026-05-04 15:35 | 45.51262 | 8.75675 | 30078 ft | 394 kts | 176° |
| 2026-05-04 15:36 | 45.43098 | 8.76921 | 30065 ft | 393 kts | 177° |
| 2026-05-04 15:36 | 45.37644 | 8.77757 | 30073 ft | 395 kts | 178° |
| 2026-05-04 15:37 | 45.32165 | 8.78589 | 30076 ft | 396 kts | 177° |
| 2026-05-04 15:37 | 45.26687 | 8.79406 | 30077 ft | 395 kts | 178° |
| 2026-05-04 15:38 | 45.21217 | 8.80253 | 30096 ft | 395 kts | 178° |
| 2026-05-04 15:38 | 45.15744 | 8.81098 | 30100 ft | 396 kts | 178° |
| 2026-05-04 15:39 | 45.10272 | 8.81908 | 30105 ft | 396 kts | 179° |
| 2026-05-04 15:40 | 45.02046 | 8.83156 | 30080 ft | 396 kts | 179° |
| 2026-05-04 15:40 | 44.96551 | 8.83945 | 30082 ft | 399 kts | 179° |
| 2026-05-04 15:41 | 44.91017 | 8.84797 | 30081 ft | 400 kts | 178° |
| 2026-05-04 15:41 | 44.85485 | 8.85606 | 30086 ft | 400 kts | 179° |
| 2026-05-04 15:42 | 44.79944 | 8.86441 | 30090 ft | 400 kts | 179° |
| 2026-05-04 15:42 | 44.74443 | 8.87239 | 30094 ft | 401 kts | 179° |
| 2026-05-04 15:43 | 44.68897 | 8.88037 | 30097 ft | 400 kts | 179° |
| 2026-05-04 15:43 | 44.63358 | 8.88836 | 30091 ft | 400 kts | 179° |
| 2026-05-04 15:44 | 44.57820 | 8.89682 | 30102 ft | 401 kts | 179° |
| 2026-05-04 15:44 | 44.53199 | 8.90391 | 30095 ft | 402 kts | 179° |
| 2026-05-04 15:45 | 44.47645 | 8.91234 | 30098 ft | 401 kts | 180° |
| 2026-05-04 15:45 | 44.42098 | 8.92025 | 30103 ft | 401 kts | 179° |
| 2026-05-04 15:46 | 44.36547 | 8.92843 | 30102 ft | 401 kts | 180° |
| 2026-05-04 15:46 | 44.31002 | 8.93667 | 30099 ft | 401 kts | 180° |
| 2026-05-04 15:47 | 44.25459 | 8.94461 | 30074 ft | 401 kts | 180° |
| 2026-05-04 15:47 | 44.19905 | 8.95289 | 30082 ft | 402 kts | 180° |
| 2026-05-04 15:48 | 44.14327 | 8.96106 | 30074 ft | 402 kts | 180° |
| 2026-05-04 15:48 | 44.05993 | 8.97331 | 29733 ft | 397 kts | 180° |
| 2026-05-04 15:49 | 44.03281 | 8.98050 | 29117 ft | 401 kts | 169° |
| 2026-05-04 15:49 | 44.00649 | 8.99382 | 28551 ft | 401 kts | 163° |
| 2026-05-04 15:49 | 43.98093 | 9.00879 | 28023 ft | 397 kts | 162° |
| 2026-05-04 15:49 | 43.95601 | 9.02383 | 27491 ft | 394 kts | 161° |
| 2026-05-04 15:50 | 43.93071 | 9.03926 | 26955 ft | 390 kts | 161° |
| 2026-05-04 15:50 | 43.90626 | 9.05404 | 26451 ft | 386 kts | 161° |
| 2026-05-04 15:50 | 43.88165 | 9.06840 | 25949 ft | 382 kts | 162° |
| 2026-05-04 15:50 | 43.85715 | 9.08240 | 25441 ft | 379 kts | 162° |
| 2026-05-04 15:51 | 43.83287 | 9.09630 | 24910 ft | 377 kts | 161° |
| 2026-05-04 15:51 | 43.80867 | 9.11006 | 24399 ft | 375 kts | 161° |
| 2026-05-04 15:51 | 43.78461 | 9.12363 | 23945 ft | 372 kts | 161° |
| 2026-05-04 15:51 | 43.76083 | 9.13728 | 23471 ft | 369 kts | 160° |
| 2026-05-04 15:52 | 43.73722 | 9.15087 | 22954 ft | 366 kts | 160° |
| 2026-05-04 15:52 | 43.71375 | 9.16428 | 22441 ft | 362 kts | 161° |
| 2026-05-04 15:52 | 43.69055 | 9.17726 | 21936 ft | 359 kts | 161° |
| 2026-05-04 15:52 | 43.66786 | 9.19014 | 21444 ft | 356 kts | 161° |
| 2026-05-04 15:53 | 43.64500 | 9.20298 | 20964 ft | 353 kts | 161° |
| 2026-05-04 15:53 | 43.62231 | 9.21578 | 20490 ft | 350 kts | 161° |
| 2026-05-04 15:53 | 43.59990 | 9.22852 | 20022 ft | 347 kts | 161° |
| 2026-05-04 15:53 | 43.57771 | 9.24118 | 19542 ft | 345 kts | 161° |
| 2026-05-04 15:54 | 43.55563 | 9.25380 | 19053 ft | 342 kts | 161° |
| 2026-05-04 15:54 | 43.53372 | 9.26633 | 18581 ft | 339 kts | 161° |
| 2026-05-04 15:54 | 43.51201 | 9.27861 | 18081 ft | 336 kts | 162° |
| 2026-05-04 15:54 | 43.49041 | 9.29055 | 17556 ft | 333 kts | 162° |
| 2026-05-04 15:55 | 43.46902 | 9.30263 | 17039 ft | 331 kts | 161° |
| 2026-05-04 15:55 | 43.44781 | 9.31468 | 16508 ft | 329 kts | 161° |
| 2026-05-04 15:55 | 43.42683 | 9.32659 | 16019 ft | 326 kts | 162° |
| 2026-05-04 15:55 | 43.40593 | 9.33838 | 15526 ft | 324 kts | 162° |
| 2026-05-04 15:56 | 43.38519 | 9.34989 | 15046 ft | 322 kts | 162° |
| 2026-05-04 15:56 | 43.36635 | 9.36048 | 14625 ft | 319 kts | 162° |
| 2026-05-04 15:56 | 43.34631 | 9.37172 | 14394 ft | 310 kts | 162° |
| 2026-05-04 15:56 | 43.32653 | 9.38281 | 14053 ft | 306 kts | 161° |
| 2026-05-04 15:57 | 43.30678 | 9.39370 | 13695 ft | 305 kts | 161° |
| 2026-05-04 15:57 | 43.28714 | 9.40454 | 13309 ft | 303 kts | 161° |
| 2026-05-04 15:57 | 43.26771 | 9.41548 | 12966 ft | 301 kts | 161° |
| 2026-05-04 15:57 | 43.24838 | 9.42630 | 12646 ft | 298 kts | 162° |
| 2026-05-04 15:58 | 43.22929 | 9.43707 | 12259 ft | 297 kts | 161° |
| 2026-05-04 15:58 | 43.21011 | 9.44759 | 11889 ft | 296 kts | 161° |
| 2026-05-04 15:58 | 43.19106 | 9.45818 | 11528 ft | 295 kts | 160° |
| 2026-05-04 15:58 | 43.17206 | 9.46873 | 11174 ft | 294 kts | 161° |
| 2026-05-04 15:59 | 43.15323 | 9.47941 | 10844 ft | 292 kts | 161° |
| 2026-05-04 15:59 | 43.13447 | 9.49000 | 10514 ft | 290 kts | 161° |
| 2026-05-04 15:59 | 43.11593 | 9.50039 | 10172 ft | 289 kts | 161° |
| 2026-05-04 15:59 | 43.09730 | 9.51065 | 9846 ft | 288 kts | 161° |
| 2026-05-04 16:00 | 43.07877 | 9.52085 | 9518 ft | 286 kts | 161° |
| 2026-05-04 16:00 | 43.06042 | 9.53100 | 9103 ft | 283 kts | 160° |
| 2026-05-04 16:00 | 43.04214 | 9.54104 | 8726 ft | 281 kts | 160° |
| 2026-05-04 16:00 | 43.02417 | 9.55109 | 8333 ft | 278 kts | 161° |
| 2026-05-04 16:01 | 43.00632 | 9.56119 | 7972 ft | 276 kts | 160° |
| 2026-05-04 16:01 | 42.98863 | 9.57110 | 7663 ft | 274 kts | 160° |
| 2026-05-04 16:01 | 42.97099 | 9.58053 | 7310 ft | 272 kts | 162° |
| 2026-05-04 16:01 | 42.95360 | 9.58891 | 7113 ft | 262 kts | 164° |
| 2026-05-04 16:02 | 42.93675 | 9.59651 | 7077 ft | 248 kts | 165° |
| 2026-05-04 16:02 | 42.92045 | 9.60319 | 7006 ft | 236 kts | 167° |
| 2026-05-04 16:02 | 42.88844 | 9.60656 | 6436 ft | 234 kts | 196° |
| 2026-05-04 16:03 | 42.87387 | 9.59756 | 6273 ft | 227 kts | 207° |
| 2026-05-04 16:03 | 42.85952 | 9.58819 | 5956 ft | 233 kts | 203° |
| 2026-05-04 16:03 | 42.84457 | 9.57951 | 5714 ft | 234 kts | 201° |
| 2026-05-04 16:03 | 42.82950 | 9.57114 | 5444 ft | 233 kts | 201° |
| 2026-05-04 16:04 | 42.81451 | 9.56314 | 5174 ft | 230 kts | 198° |
| 2026-05-04 16:04 | 42.78490 | 9.55165 | 4614 ft | 210 kts | 195° |
| 2026-05-04 16:04 | 42.77153 | 9.54673 | 4380 ft | 190 kts | 193° |
| 2026-05-04 16:05 | 42.75949 | 9.54235 | 4118 ft | 171 kts | 193° |
| 2026-05-04 16:05 | 42.74799 | 9.53828 | 3785 ft | 170 kts | 192° |
| 2026-05-04 16:05 | 42.72519 | 9.53001 | 3089 ft | 164 kts | 192° |
| 2026-05-04 16:06 | 42.71459 | 9.52613 | 2716 ft | 153 kts | 192° |
| 2026-05-04 16:06 | 42.68849 | 9.51656 | 1913 ft | 134 kts | 189° |
| 2026-05-04 16:07 | 42.67740 | 9.51258 | 1656 ft | 118 kts | 188° |
| 2026-05-04 16:07 | 42.65399 | 9.50410 | 888 ft | 115 kts | 190° |
| 2026-05-04 16:08 | 42.64625 | 9.50129 | 690 ft | 114 kts | 190° |
| 2026-05-04 16:08 | 42.62464 | 9.48916 | 551 ft | 117 kts | 208° |
| 2026-05-04 16:09 | 42.61173 | 9.47613 | 634 ft | 119 kts | 203° |
| 2026-05-04 16:09 | 42.59702 | 9.46797 | 594 ft | 121 kts | 175° |
| 2026-05-04 16:10 | 42.58069 | 9.47204 | 418 ft | 115 kts | 163° |
| 2026-05-04 16:11 | 42.55808 | 9.48145 | 28 ft | 98 kts | 158° |
| 2026-05-04 16:11 | 42.55280 | 9.48371 | 37 ft | 61 kts | 163° |
| 2026-05-04 16:12 | 42.54927 | 9.48249 | 35 ft | 9 kts | 196° |
| 2026-05-04 16:12 | 42.54832 | 9.48174 | 35 ft | 5 kts | 253° |
| 2026-05-04 16:13 | 42.54831 | 9.48169 | 35 ft | 0 kts | 253° |